createdAt,value
2018-11-23T00:01:20.250Z,50.50
2018-11-23T00:03:48.132Z,48.80
2018-11-23T00:06:15.887Z,46.83
2018-11-23T00:08:43.626Z,45.97
2018-11-23T00:11:11.324Z,49.93
2018-11-23T00:13:38.941Z,48.40
2018-11-23T00:16:06.604Z,50.73
2018-11-23T00:18:34.395Z,48.60
2018-11-23T00:21:02.014Z,49.20
2018-11-23T00:23:30.349Z,49.13
2018-11-23T00:25:58.062Z,49.10
2018-11-23T00:28:25.712Z,48.53
2018-11-23T00:30:55.491Z,47.90
2018-11-23T00:33:23.038Z,51.90
2018-11-23T00:35:50.590Z,50.17
2018-11-23T00:38:18.260Z,50.73
2018-11-23T00:40:45.954Z,48.90
2018-11-23T00:43:13.513Z,48.37
2018-11-23T00:45:43.035Z,51.43
2018-11-23T00:48:08.670Z,50.57
2018-11-23T00:50:36.409Z,51.53
2018-11-23T00:53:03.996Z,49.93
2018-11-23T00:55:31.565Z,49.60
2018-11-23T00:57:59.211Z,53.37
2018-11-23T01:00:28.024Z,52.97
2018-11-23T01:02:56.543Z,51.27
2018-11-23T01:05:24.222Z,46.67
2018-11-23T01:07:52.004Z,50.67
2018-11-23T01:10:20.759Z,53.43
2018-11-23T01:12:49.520Z,53.67
2018-11-23T01:15:17.270Z,49.57
2018-11-23T01:17:44.899Z,50.57
2018-11-23T01:20:15.611Z,52.00
2018-11-23T01:22:43.481Z,52.70
2018-11-23T01:25:12.309Z,51.03
2018-11-23T01:27:40.772Z,52.37
2018-11-23T01:30:11.823Z,53.87
2018-11-23T01:32:39.548Z,50.40
2018-11-23T01:35:07.331Z,54.00
2018-11-23T01:37:34.839Z,52.10
2018-11-23T01:40:02.591Z,51.63
2018-11-23T01:42:30.301Z,50.03
2018-11-23T01:44:58.111Z,53.67
2018-11-23T01:47:26.197Z,51.47
2018-11-23T01:49:53.821Z,53.47
2018-11-23T01:52:21.444Z,51.37
2018-11-23T01:54:49.198Z,53.87
2018-11-23T01:57:16.994Z,52.27
2018-11-23T01:59:44.592Z,54.17
2018-11-23T02:02:12.135Z,48.90
2018-11-23T02:04:39.772Z,52.27
2018-11-23T02:07:07.613Z,51.87
2018-11-23T02:09:36.334Z,52.00
2018-11-23T02:12:04.097Z,53.77
2018-11-23T02:14:31.697Z,52.13
2018-11-23T02:16:59.289Z,53.17
2018-11-23T02:19:26.981Z,56.30
2018-11-23T02:21:54.743Z,50.70
2018-11-23T02:24:22.326Z,52.50
2018-11-23T02:26:50.203Z,53.27
2018-11-23T02:29:17.955Z,53.03
2018-11-23T02:31:45.591Z,50.77
2018-11-23T02:34:13.177Z,52.47
2018-11-23T02:36:41.113Z,53.30
2018-11-23T02:39:08.971Z,54.83
2018-11-23T02:41:36.979Z,53.93
2018-11-23T02:44:04.902Z,54.10
2018-11-23T02:46:32.613Z,51.07
2018-11-23T02:49:00.753Z,47.73
2018-11-23T02:51:28.286Z,52.23
2018-11-23T02:53:56.726Z,54.77
2018-11-23T02:56:24.228Z,54.20
2018-11-23T02:58:51.950Z,51.27
2018-11-23T03:01:19.761Z,53.63
2018-11-23T03:03:47.415Z,58.40
2018-11-23T03:06:15.040Z,54.93
2018-11-23T03:08:42.700Z,55.90
2018-11-23T03:11:10.256Z,54.83
2018-11-23T03:13:37.778Z,55.57
2018-11-23T03:16:05.626Z,54.07
2018-11-23T03:18:33.541Z,58.47
2018-11-23T03:21:01.479Z,55.73
2018-11-23T03:23:29.117Z,54.47
2018-11-23T03:25:56.772Z,55.77
2018-11-23T03:28:24.561Z,57.53
2018-11-23T03:30:52.508Z,54.90
2018-11-23T03:33:20.316Z,53.30
2018-11-23T03:35:47.950Z,54.90
2018-11-23T03:38:15.653Z,56.83
2018-11-23T03:40:43.913Z,54.63
2018-11-23T03:43:11.854Z,53.10
2018-11-23T03:45:39.630Z,54.47
2018-11-23T03:48:07.270Z,52.50
2018-11-23T03:50:35.412Z,51.53
2018-11-23T03:53:02.961Z,53.60
2018-11-23T03:55:30.619Z,50.67
2018-11-23T03:57:58.361Z,51.00
2018-11-23T04:00:26.194Z,56.33
2018-11-23T04:02:54.858Z,54.07
2018-11-23T04:05:22.554Z,51.20
2018-11-23T04:07:50.150Z,49.93
2018-11-23T04:10:17.908Z,50.57
2018-11-23T04:12:45.869Z,51.67
2018-11-23T04:15:13.912Z,52.97
2018-11-23T04:17:42.489Z,52.87
2018-11-23T04:20:13.541Z,50.10
2018-11-23T04:22:41.691Z,51.73
2018-11-23T04:25:09.759Z,50.17
2018-11-23T04:27:37.292Z,51.63
2018-11-23T04:30:07.468Z,51.23
2018-11-23T04:32:35.951Z,49.13
2018-11-23T04:35:04.009Z,51.80
2018-11-23T04:37:31.773Z,48.43
2018-11-23T04:39:59.480Z,49.30
2018-11-23T04:42:27.814Z,48.27
2018-11-23T04:44:55.339Z,48.50
2018-11-23T04:47:24.112Z,49.30
2018-11-23T04:49:51.631Z,48.60
2018-11-23T04:52:19.276Z,47.77
2018-11-23T04:54:46.871Z,48.97
2018-11-23T04:57:14.549Z,48.60
2018-11-23T04:59:42.019Z,49.27
2018-11-23T05:02:09.604Z,47.23
2018-11-23T05:04:37.374Z,49.23
2018-11-23T05:07:05.073Z,47.23
2018-11-23T05:09:33.232Z,50.43
2018-11-23T05:12:00.869Z,53.20
2018-11-23T05:14:28.517Z,50.37
2018-11-23T05:16:56.298Z,49.27
2018-11-23T05:19:24.008Z,50.87
2018-11-23T05:21:51.695Z,49.27
2018-11-23T05:24:19.564Z,50.27
2018-11-23T05:26:47.218Z,51.50
2018-11-23T05:29:14.991Z,49.93
2018-11-23T05:31:42.738Z,51.00
2018-11-23T05:34:10.634Z,49.90
2018-11-23T05:36:38.495Z,48.47
2018-11-23T05:39:08.070Z,50.97
2018-11-23T05:41:44.937Z,51.40
2018-11-23T05:44:13.190Z,50.23
2018-11-23T05:46:41.157Z,54.13
2018-11-23T05:49:08.948Z,51.43
2018-11-23T05:51:37.448Z,52.57
2018-11-23T05:54:06.019Z,52.53
2018-11-23T05:56:33.907Z,51.23
2018-11-23T05:59:32.159Z,48.83
2018-11-23T06:02:00.240Z,51.30
2018-11-23T06:04:30.602Z,50.93
2018-11-23T06:06:58.420Z,51.03
2018-11-23T06:09:26.395Z,54.23
2018-11-23T06:11:54.982Z,53.87
2018-11-23T06:14:23.012Z,54.47
2018-11-23T06:16:51.097Z,53.10
2018-11-23T06:19:19.846Z,47.97
2018-11-23T06:21:48.444Z,49.13
2018-11-23T06:24:16.373Z,52.27
2018-11-23T06:26:44.259Z,48.07
2018-11-23T06:29:12.248Z,49.23
2018-11-23T06:31:42.026Z,49.03
2018-11-23T06:34:10.639Z,50.27
2018-11-23T06:36:39.157Z,52.33
2018-11-23T06:39:09.352Z,50.80
2018-11-23T06:41:37.944Z,50.17
2018-11-23T06:44:06.789Z,48.63
2018-11-23T06:46:35.709Z,50.13
2018-11-23T06:49:04.063Z,49.43
2018-11-23T06:51:33.960Z,47.53
2018-11-23T06:54:02.076Z,49.67
2018-11-23T06:56:30.101Z,48.57
2018-11-23T06:59:00.821Z,47.33
2018-11-23T07:01:29.887Z,47.93
2018-11-23T07:08:21.086Z,45.70
2018-11-23T07:10:51.844Z,48.53
2018-11-23T07:13:32.055Z,49.00
2018-11-23T07:16:02.488Z,44.17
2018-11-23T07:18:35.854Z,47.43
2018-11-23T07:21:06.850Z,50.33
2018-11-23T07:23:37.770Z,44.93
2018-11-23T07:26:10.200Z,48.53
2018-11-23T07:28:41.123Z,48.53
2018-11-23T07:31:12.814Z,43.83
2018-11-23T07:33:43.355Z,44.77
2018-11-23T07:36:11.803Z,45.57
2018-11-23T07:38:43.609Z,45.63
2018-11-23T07:44:08.530Z,45.33
2018-11-23T07:46:44.163Z,46.37
2018-11-23T07:49:14.000Z,48.17
2018-11-23T07:51:47.023Z,46.73
2018-11-23T07:54:21.961Z,45.40
2018-11-23T07:56:51.029Z,43.93
2018-11-23T07:59:37.979Z,48.23
2018-11-23T08:02:13.078Z,46.97
2018-11-23T08:04:49.405Z,43.20
2018-11-23T08:07:24.267Z,44.33
2018-11-23T08:09:57.276Z,45.03
2018-11-23T08:12:27.851Z,45.43
2018-11-23T08:15:01.578Z,45.20
2018-11-23T08:17:59.706Z,42.07
2018-11-23T08:20:32.683Z,42.63
2018-11-23T08:23:04.329Z,44.20
2018-11-23T08:25:45.158Z,44.30
2018-11-23T08:28:20.923Z,43.73
2018-11-23T08:30:49.823Z,42.50
2018-11-23T08:33:20.306Z,44.20
2018-11-23T08:35:50.392Z,42.63
2018-11-23T08:41:06.784Z,42.00
2018-11-23T08:43:34.650Z,45.97
2018-11-23T08:46:02.697Z,44.57
2018-11-23T08:48:30.785Z,42.67
2018-11-23T08:50:59.375Z,42.17
2018-11-23T08:53:32.373Z,43.57
2018-11-23T08:56:01.585Z,42.17
2018-11-23T08:58:29.538Z,43.03
2018-11-23T09:00:57.478Z,41.43
2018-11-23T09:03:25.484Z,44.90
2018-11-23T09:05:53.465Z,42.30
2018-11-23T09:08:23.392Z,42.40
2018-11-23T09:10:52.073Z,42.13
2018-11-23T09:13:20.002Z,44.87
2018-11-23T09:15:48.088Z,43.53
2018-11-23T09:18:16.192Z,42.07
2018-11-23T09:20:43.932Z,41.97
2018-11-23T09:23:12.457Z,44.03
2018-11-23T09:25:40.935Z,39.80
2018-11-23T09:28:09.832Z,44.67
2018-11-23T09:30:38.115Z,44.67
2018-11-23T09:33:06.256Z,41.40
2018-11-23T09:35:34.138Z,39.03
2018-11-23T09:38:02.334Z,40.57
2018-11-23T09:40:30.875Z,39.60
2018-11-23T09:42:59.755Z,42.00
2018-11-23T09:45:29.407Z,42.70
2018-11-23T09:47:59.072Z,40.03
2018-11-23T09:50:27.501Z,38.90
2018-11-23T09:52:57.032Z,41.47
2018-11-23T09:55:25.927Z,39.97
2018-11-23T09:57:54.027Z,40.93
2018-11-23T10:00:24.845Z,42.47
2018-11-23T10:02:54.325Z,39.77
2018-11-23T10:05:23.845Z,39.80
2018-11-23T10:07:54.139Z,40.40
2018-11-23T10:10:24.014Z,38.90
2018-11-23T10:12:52.471Z,42.03
2018-11-23T10:15:21.509Z,40.73
2018-11-23T10:17:49.587Z,39.40
2018-11-23T10:20:24.217Z,43.30
2018-11-23T10:22:53.056Z,37.70
2018-11-23T10:25:22.691Z,38.97
2018-11-23T10:27:50.747Z,39.37
2018-11-23T10:30:20.690Z,39.90
2018-11-23T10:32:50.059Z,39.37
2018-11-23T10:35:18.398Z,37.77
2018-11-23T10:37:48.443Z,38.27
2018-11-23T10:43:09.764Z,37.93
2018-11-23T10:45:38.477Z,38.20
2018-11-23T10:48:07.726Z,40.13
2018-11-23T10:53:29.267Z,39.43
2018-11-23T10:55:57.696Z,41.10
2018-11-23T10:58:26.420Z,39.60
2018-11-23T11:01:00.204Z,40.63
2018-11-23T11:03:40.178Z,39.87
2018-11-23T11:06:14.032Z,39.10
2018-11-23T11:08:42.427Z,39.27
2018-11-23T11:11:13.694Z,38.47
2018-11-23T11:13:39.512Z,39.03
2018-11-23T11:19:01.374Z,39.40
2018-11-23T11:21:30.714Z,39.27
2018-11-23T11:23:58.849Z,38.60
2018-11-23T11:26:26.996Z,37.80
2018-11-23T11:34:25.401Z,37.93
2018-11-23T11:36:55.831Z,34.80
2018-11-23T11:39:25.075Z,35.87
2018-11-23T11:41:55.801Z,38.70
2018-11-23T11:44:24.725Z,39.37
2018-11-23T11:47:06.990Z,38.93
2018-11-23T11:49:38.142Z,36.13
2018-11-23T11:52:09.994Z,37.70
2018-11-23T11:54:41.450Z,38.13
2018-11-23T11:57:15.844Z,38.80
2018-11-23T11:59:44.535Z,39.00
2018-11-23T12:02:14.858Z,36.87
2018-11-23T12:04:48.109Z,40.20
2018-11-23T12:07:26.367Z,37.27
2018-11-23T12:09:55.435Z,39.17
2018-11-23T12:12:50.700Z,38.47
2018-11-23T12:15:19.422Z,37.07
2018-11-23T12:17:47.760Z,36.70
2018-11-23T12:20:19.599Z,37.10
2018-11-23T12:22:50.213Z,38.57
2018-11-23T12:25:20.532Z,37.10
2018-11-23T12:27:50.200Z,36.43
2018-11-23T12:30:20.687Z,39.87
2018-11-23T12:32:51.873Z,36.83
2018-11-23T12:35:22.947Z,36.07
2018-11-23T12:37:51.089Z,35.80
2018-11-23T12:40:20.183Z,37.60
2018-11-23T12:42:48.938Z,37.73
2018-11-23T12:45:21.570Z,35.33
2018-11-23T12:47:51.815Z,36.73
2018-11-23T12:50:28.309Z,34.83
2018-11-23T12:53:10.869Z,38.03
2018-11-23T12:55:40.450Z,35.97
2018-11-23T13:00:48.902Z,34.57
2018-11-23T13:03:18.629Z,35.63
2018-11-23T13:05:47.273Z,37.83
2018-11-23T13:08:32.372Z,37.37
2018-11-23T13:11:03.570Z,35.60
2018-11-23T13:13:41.558Z,35.93
2018-11-23T13:16:20.511Z,35.17
2018-11-23T13:18:54.340Z,34.47
2018-11-23T13:21:27.924Z,35.40
2018-11-23T13:24:04.318Z,34.93
2018-11-23T13:26:47.129Z,38.17
2018-11-23T13:29:16.268Z,36.87
2018-11-23T13:31:53.151Z,37.50
2018-11-23T13:34:21.769Z,36.63
2018-11-23T13:36:57.588Z,36.03
2018-11-23T13:39:25.860Z,37.73
2018-11-23T13:41:53.833Z,36.53
2018-11-23T13:44:21.941Z,37.80
2018-11-23T13:46:55.562Z,35.03
2018-11-23T13:49:31.982Z,36.93
2018-11-23T13:52:03.170Z,36.07
2018-11-23T13:54:36.492Z,36.60
2018-11-23T13:57:07.380Z,36.60
2018-11-23T13:59:36.967Z,38.73
2018-11-23T14:02:05.300Z,37.00
2018-11-23T14:04:35.766Z,36.73
2018-11-23T14:07:13.070Z,37.83
2018-11-23T14:09:43.505Z,36.50
2018-11-23T14:12:12.194Z,35.63
2018-11-23T14:14:40.377Z,37.53
2018-11-23T14:17:11.920Z,37.37
2018-11-23T14:19:50.705Z,35.13
2018-11-23T14:22:19.872Z,37.60
2018-11-23T14:25:00.831Z,38.90
2018-11-23T14:27:48.507Z,36.27
2018-11-23T14:30:22.637Z,37.80
2018-11-23T14:33:10.455Z,36.07
2018-11-23T14:36:37.710Z,36.60
2018-11-23T14:39:14.035Z,36.33
2018-11-23T14:41:48.548Z,35.83
2018-11-23T14:44:24.019Z,37.73
2018-11-23T14:47:00.028Z,36.27
2018-11-23T14:50:00.004Z,37.57
2018-11-23T14:52:46.399Z,35.83
2018-11-23T14:55:15.803Z,36.87
2018-11-23T14:57:44.852Z,39.03
2018-11-23T15:00:16.973Z,36.83
2018-11-23T15:02:51.966Z,37.33
2018-11-23T15:05:23.586Z,37.63
2018-11-23T15:07:51.514Z,37.73
2018-11-23T15:10:24.756Z,37.20
2018-11-23T15:12:57.040Z,35.50
2018-11-23T15:15:28.934Z,35.87
2018-11-23T15:17:58.741Z,37.30
2018-11-23T15:20:30.123Z,36.97
2018-11-23T15:23:03.749Z,36.83
2018-11-23T15:25:37.458Z,35.70
2018-11-23T15:28:07.538Z,37.70
2018-11-23T15:30:37.108Z,36.17
2018-11-23T15:33:06.009Z,37.20
2018-11-23T15:35:35.379Z,36.03
2018-11-23T15:38:12.678Z,36.10
2018-11-23T15:40:49.352Z,36.60
2018-11-23T15:43:21.232Z,34.43
2018-11-23T15:45:59.857Z,33.97
2018-11-23T15:48:30.106Z,36.73
2018-11-23T15:51:03.654Z,35.30
2018-11-23T15:53:32.139Z,35.67
2018-11-23T15:56:01.061Z,34.30
2018-11-23T15:58:29.628Z,34.50
2018-11-23T16:00:58.371Z,35.97
2018-11-23T16:03:26.899Z,36.20
2018-11-23T16:05:56.670Z,36.07
2018-11-23T16:08:26.286Z,37.00
2018-11-23T16:10:57.880Z,35.83
2018-11-23T16:13:26.490Z,36.73
2018-11-23T16:15:57.231Z,36.73
2018-11-23T16:18:30.962Z,35.33
2018-11-23T16:21:03.112Z,35.67
2018-11-23T16:24:07.311Z,37.07
2018-11-23T16:26:49.737Z,36.27
2018-11-23T16:29:19.426Z,35.57
2018-11-23T16:31:51.711Z,36.30
2018-11-23T16:34:23.155Z,36.43
2018-11-23T16:36:52.923Z,34.53
2018-11-23T16:39:22.271Z,34.50
2018-11-23T16:44:39.057Z,36.47
2018-11-23T16:47:08.334Z,37.30
2018-11-23T16:49:39.759Z,37.73
2018-11-23T16:52:08.965Z,37.40
2018-11-23T16:54:38.370Z,45.13
2018-11-23T16:57:07.356Z,37.70
2018-11-23T16:59:37.654Z,36.37
2018-11-23T17:02:06.640Z,36.67
2018-11-23T17:04:36.351Z,38.27
2018-11-23T17:10:06.899Z,35.73
2018-11-23T17:12:37.066Z,35.90
2018-11-23T17:15:07.082Z,35.40
2018-11-23T17:17:35.957Z,37.83
2018-11-23T17:20:05.244Z,35.57
2018-11-23T17:22:34.241Z,37.17
2018-11-23T17:30:43.714Z,36.50
2018-11-23T17:33:13.202Z,37.90
2018-11-23T17:35:49.471Z,36.67
2018-11-23T17:38:18.596Z,37.40
2018-11-23T17:40:47.716Z,37.23
2018-11-23T17:43:17.041Z,37.53
2018-11-23T17:45:45.771Z,38.93
2018-11-23T17:48:14.672Z,38.87
2018-11-23T17:50:45.903Z,39.37
2018-11-23T17:53:17.858Z,38.70
2018-11-23T17:55:46.666Z,38.07
2018-11-23T17:58:20.367Z,38.47
2018-11-23T18:00:51.378Z,38.70
2018-11-23T18:03:19.834Z,36.27
2018-11-23T18:05:49.884Z,38.57
2018-11-23T18:08:18.538Z,38.00
2018-11-23T18:10:48.279Z,39.13
2018-11-23T18:13:17.305Z,37.50
2018-11-23T18:15:46.197Z,37.00
2018-11-23T18:18:15.139Z,37.97
2018-11-23T18:20:43.777Z,37.37
2018-11-23T18:23:13.235Z,37.50
2018-11-23T18:25:42.963Z,37.73
2018-11-23T18:28:11.933Z,34.77
2018-11-23T18:30:40.336Z,36.67
2018-11-23T18:33:09.001Z,38.40
2018-11-23T18:35:38.453Z,39.33
2018-11-23T18:38:08.129Z,37.63
2018-11-23T18:40:37.736Z,38.93
2018-11-23T18:43:05.741Z,40.27
2018-11-23T18:45:34.232Z,40.13
2018-11-23T18:48:03.062Z,39.53
2018-11-23T18:50:32.876Z,39.60
2018-11-23T18:53:02.006Z,38.80
2018-11-23T18:55:30.898Z,39.37
2018-11-23T18:58:00.073Z,39.67
2018-11-23T19:00:33.500Z,38.37
2018-11-23T19:03:09.542Z,39.30
2018-11-23T19:05:40.741Z,39.03
2018-11-23T19:08:12.415Z,39.73
2018-11-23T19:10:42.111Z,37.87
2018-11-23T19:13:13.909Z,37.93
2018-11-23T19:15:46.768Z,39.17
2018-11-23T19:18:20.395Z,38.50
2018-11-23T19:20:52.590Z,37.97
2018-11-23T19:23:21.835Z,40.43
2018-11-23T19:26:10.887Z,37.73
2018-11-23T19:28:42.073Z,39.43
2018-11-23T19:31:14.579Z,39.57
2018-11-23T19:33:46.662Z,37.63
2018-11-23T19:36:21.003Z,39.90
2018-11-23T19:41:48.899Z,37.47
2018-11-23T19:44:19.892Z,36.83
2018-11-23T19:46:50.887Z,36.27
2018-11-23T19:49:23.372Z,37.00
2018-11-23T19:51:56.816Z,38.10
2018-11-23T19:54:27.344Z,36.43
2018-11-23T19:57:03.660Z,37.40
2018-11-23T19:59:38.249Z,37.53
2018-11-23T20:02:16.068Z,39.83
2018-11-23T20:04:49.204Z,37.80
2018-11-23T20:07:24.825Z,36.23
2018-11-23T20:09:56.262Z,37.60
2018-11-23T20:12:34.991Z,38.17
2018-11-23T20:15:07.222Z,37.07
2018-11-23T20:17:41.521Z,37.20
2018-11-23T20:20:17.502Z,38.23
2018-11-23T20:25:33.630Z,42.03
2018-11-23T20:28:01.179Z,43.10
2018-11-23T20:30:28.837Z,39.03
2018-11-23T20:32:56.600Z,41.43
2018-11-23T20:35:24.287Z,42.67
2018-11-23T20:37:51.828Z,39.27
2018-11-23T20:40:20.435Z,43.20
2018-11-23T20:42:48.266Z,40.67
2018-11-23T20:45:15.979Z,42.57
2018-11-23T20:47:43.796Z,39.60
2018-11-23T20:50:13.398Z,42.67
2018-11-23T20:52:41.055Z,38.70
2018-11-23T20:55:14.774Z,42.27
2018-11-23T20:57:42.466Z,39.60
2018-11-23T21:00:14.209Z,41.57
2018-11-23T21:02:42.248Z,37.33
2018-11-23T21:05:10.996Z,38.27
2018-11-23T21:07:38.652Z,39.87
2018-11-23T21:10:10.088Z,41.87
2018-11-23T21:12:37.895Z,39.80
2018-11-23T21:15:27.002Z,38.20
2018-11-23T21:17:55.182Z,39.50
2018-11-23T21:20:22.902Z,42.13
2018-11-23T21:22:50.600Z,40.60
2018-11-23T21:25:18.456Z,40.00
2018-11-23T21:27:46.300Z,40.60
2018-11-23T21:30:16.160Z,38.40
2018-11-23T21:32:43.801Z,38.10
2018-11-23T21:35:12.163Z,37.47
2018-11-23T21:37:40.397Z,36.80
2018-11-23T21:40:10.318Z,38.30
2018-11-23T21:42:38.092Z,36.70
2018-11-23T21:45:08.152Z,38.63
2018-11-23T21:47:35.981Z,37.73
2018-11-23T21:50:04.253Z,39.83
2018-11-23T21:52:32.100Z,34.03
2018-11-23T21:54:59.753Z,33.30
2018-11-23T21:57:27.819Z,32.10
2018-11-23T21:59:56.476Z,34.13
2018-11-23T22:02:24.345Z,35.07
2018-11-23T22:04:52.183Z,35.77
2018-11-23T22:07:20.340Z,37.07
2018-11-23T22:09:47.822Z,37.03
2018-11-23T22:12:15.579Z,36.00
2018-11-23T22:14:43.310Z,35.30
2018-11-23T22:17:11.004Z,34.73
2018-11-23T22:19:38.740Z,33.20
2018-11-23T22:22:06.370Z,32.93
2018-11-23T22:24:34.134Z,30.17
2018-11-23T22:27:01.947Z,32.17
2018-11-23T22:29:29.688Z,29.63
2018-11-23T22:31:57.475Z,30.63
2018-11-23T22:34:25.161Z,33.33
2018-11-23T22:36:52.891Z,33.00
2018-11-23T22:39:20.508Z,29.37
2018-11-23T22:41:48.365Z,28.67
2018-11-23T22:44:16.032Z,30.83
2018-11-23T22:46:43.630Z,22.50
2018-11-23T22:49:11.299Z,21.63
2018-11-23T22:51:38.842Z,24.27
2018-11-23T22:54:06.463Z,24.73
2018-11-23T22:56:34.056Z,25.57
2018-11-23T22:59:01.570Z,24.63
2018-11-23T23:01:29.090Z,24.80
2018-11-23T23:03:56.622Z,25.20
2018-11-23T23:06:24.175Z,19.83
2018-11-23T23:08:51.718Z,19.03
2018-11-23T23:11:19.244Z,20.30
2018-11-23T23:13:46.653Z,20.37
2018-11-23T23:16:14.218Z,20.40
2018-11-23T23:18:44.613Z,23.40
2018-11-23T23:21:12.073Z,23.27
2018-11-23T23:23:40.810Z,23.00
2018-11-23T23:26:08.306Z,21.87
2018-11-23T23:28:35.915Z,19.37
2018-11-23T23:31:03.545Z,20.90
2018-11-23T23:33:30.978Z,22.30
2018-11-23T23:35:58.766Z,23.23
2018-11-23T23:38:26.406Z,18.63
2018-11-23T23:40:53.947Z,19.07
2018-11-23T23:43:21.463Z,19.97
2018-11-23T23:45:49.079Z,21.57
2018-11-23T23:48:16.693Z,20.67
2018-11-23T23:50:44.306Z,20.60
2018-11-23T23:53:11.903Z,19.60
2018-11-23T23:55:39.482Z,20.83
2018-11-23T23:58:06.984Z,22.53
